createdAt,value
2022-10-11T00:02:02.578Z,7.23
2022-10-11T00:04:29.417Z,7.22
2022-10-11T00:06:56.180Z,7.17
2022-10-11T00:09:22.851Z,7.20
2022-10-11T00:11:49.879Z,7.22
2022-10-11T00:14:16.935Z,7.21
2022-10-11T00:16:44.593Z,7.22
2022-10-11T00:19:11.989Z,7.22
2022-10-11T00:21:39.446Z,7.22
2022-10-11T00:24:06.661Z,7.21
2022-10-11T00:26:33.684Z,7.21
2022-10-11T00:29:00.297Z,7.23
2022-10-11T00:31:26.865Z,7.23
2022-10-11T00:33:55.037Z,7.22
2022-10-11T00:36:22.560Z,7.23
2022-10-11T00:38:49.553Z,7.25
2022-10-11T00:41:16.563Z,7.26
2022-10-11T00:43:44.078Z,7.28
2022-10-11T00:46:13.788Z,7.30
2022-10-11T00:48:46.083Z,7.32
2022-10-11T00:51:21.031Z,7.31
2022-10-11T00:53:50.953Z,7.33
2022-10-11T00:56:27.908Z,7.33
2022-10-11T00:58:56.542Z,7.32
2022-10-11T01:01:23.654Z,7.31
2022-10-11T01:03:50.340Z,7.32
2022-10-11T01:06:17.563Z,7.34
2022-10-11T01:08:44.656Z,7.34
2022-10-11T01:11:15.850Z,7.34
2022-10-11T01:14:02.071Z,7.36
2022-10-11T01:16:42.703Z,7.36
2022-10-11T01:19:24.768Z,7.38
2022-10-11T01:22:48.451Z,7.36
2022-10-11T01:25:36.443Z,7.35
2022-10-11T01:28:08.939Z,7.34
2022-10-11T01:30:37.203Z,7.33
2022-10-11T01:33:35.847Z,7.34
2022-10-11T01:36:27.866Z,7.31
2022-10-11T01:39:03.500Z,7.30
2022-10-11T01:41:39.339Z,7.30
2022-10-11T01:44:08.141Z,7.29
2022-10-11T01:46:36.683Z,7.30
2022-10-11T01:49:04.746Z,7.28
2022-10-11T01:51:35.083Z,7.28
2022-10-11T01:54:23.897Z,7.26
2022-10-11T01:56:56.432Z,7.26
2022-10-11T01:59:40.777Z,7.23
2022-10-11T02:02:32.333Z,7.19
2022-10-11T02:05:05.165Z,7.13
2022-10-11T02:07:36.162Z,7.09
2022-10-11T02:10:20.050Z,7.08
2022-10-11T02:12:54.178Z,7.06
2022-10-11T02:15:23.385Z,7.02
2022-10-11T02:17:55.541Z,6.98
2022-10-11T02:20:26.570Z,6.93
2022-10-11T02:22:59.266Z,6.91
2022-10-11T02:25:29.183Z,6.90
2022-10-11T02:27:59.536Z,6.87
2022-10-11T02:30:26.296Z,6.87
2022-10-11T02:32:54.873Z,6.84
2022-10-11T02:35:26.468Z,6.76
2022-10-11T02:38:05.789Z,6.74
2022-10-11T02:40:35.200Z,6.72
2022-10-11T02:43:08.063Z,6.72
2022-10-11T02:45:57.153Z,6.71
2022-10-11T02:48:27.622Z,6.66
2022-10-11T02:50:56.556Z,6.66
2022-10-11T02:53:24.654Z,6.58
2022-10-11T02:55:53.613Z,6.62
2022-10-11T02:58:20.906Z,6.59
2022-10-11T03:00:48.303Z,6.55
2022-10-11T03:03:15.872Z,6.49
2022-10-11T03:05:43.576Z,6.48
2022-10-11T03:08:13.322Z,6.41
2022-10-11T03:10:40.653Z,6.35
2022-10-11T03:13:07.991Z,6.31
2022-10-11T03:15:34.843Z,6.29
2022-10-11T03:18:01.688Z,6.29
2022-10-11T03:20:28.353Z,6.29
2022-10-11T03:22:55.002Z,6.29
2022-10-11T03:25:22.263Z,6.29
2022-10-11T03:27:48.915Z,6.30
2022-10-11T03:30:18.311Z,6.30
2022-10-11T03:32:45.767Z,6.20
2022-10-11T03:35:12.603Z,6.28
2022-10-11T03:37:39.214Z,6.28
2022-10-11T03:40:08.390Z,6.25
2022-10-11T03:42:35.967Z,6.22
2022-10-11T03:45:05.104Z,6.16
2022-10-11T03:47:32.260Z,6.16
2022-10-11T03:49:58.886Z,6.15
2022-10-11T03:52:25.516Z,6.13
2022-10-11T03:54:52.536Z,6.10
2022-10-11T03:57:19.417Z,6.10
2022-10-11T03:59:46.569Z,6.05
2022-10-11T04:02:13.322Z,6.07
2022-10-11T04:04:39.921Z,6.06
2022-10-11T04:07:06.975Z,6.03
2022-10-11T04:09:33.863Z,6.01
2022-10-11T04:12:01.242Z,5.97
2022-10-11T04:14:27.984Z,5.94
2022-10-11T04:16:58.349Z,5.96
2022-10-11T04:19:26.958Z,5.95
2022-10-11T04:21:53.608Z,5.91
2022-10-11T04:24:20.266Z,5.92
2022-10-11T04:26:46.894Z,5.93
2022-10-11T04:29:13.527Z,5.91
2022-10-11T04:31:40.221Z,5.88
2022-10-11T04:34:07.170Z,5.88
2022-10-11T04:36:34.117Z,5.87
2022-10-11T04:39:01.943Z,5.86
2022-10-11T04:41:29.539Z,5.87
2022-10-11T04:43:56.271Z,5.86
2022-10-11T04:46:23.466Z,5.82
2022-10-11T04:48:50.713Z,5.84
2022-10-11T04:51:18.373Z,5.87
2022-10-11T04:53:45.197Z,5.88
2022-10-11T04:56:12.290Z,5.90
2022-10-11T04:58:41.061Z,5.91
2022-10-11T05:01:08.340Z,5.90
2022-10-11T05:03:35.057Z,5.88
2022-10-11T05:06:05.627Z,5.89
2022-10-11T05:08:33.268Z,5.92
2022-10-11T05:11:02.645Z,5.95
2022-10-11T05:13:30.114Z,5.97
2022-10-11T05:15:57.229Z,6.02
2022-10-11T05:18:24.891Z,6.04
2022-10-11T05:21:15.340Z,6.08
2022-10-11T05:23:42.381Z,6.10
2022-10-11T05:26:09.520Z,6.13
2022-10-11T05:28:36.818Z,6.17
2022-10-11T05:31:03.942Z,6.19
2022-10-11T05:33:31.283Z,6.24
2022-10-11T05:35:58.167Z,6.31
2022-10-11T05:38:24.844Z,6.36
2022-10-11T05:40:52.279Z,6.41
2022-10-11T05:43:19.113Z,6.47
2022-10-11T05:45:46.560Z,6.52
2022-10-11T05:48:13.235Z,6.61
2022-10-11T05:50:40.018Z,6.70
2022-10-11T05:53:07.273Z,6.76
2022-10-11T05:55:39.161Z,6.83
2022-10-11T05:58:06.852Z,6.90
2022-10-11T06:00:36.949Z,6.98
2022-10-11T06:03:05.384Z,7.00
2022-10-11T06:05:32.269Z,7.12
2022-10-11T06:07:58.984Z,7.20
2022-10-11T06:10:26.189Z,7.30
2022-10-11T06:12:53.445Z,7.35
2022-10-11T06:15:20.187Z,7.45
2022-10-11T06:17:47.427Z,7.55
2022-10-11T06:20:14.879Z,7.64
2022-10-11T06:22:41.495Z,7.74
2022-10-11T06:25:08.419Z,7.82
2022-10-11T06:27:35.333Z,7.92
2022-10-11T06:30:01.925Z,8.01
2022-10-11T06:32:29.067Z,8.10
2022-10-11T06:34:55.707Z,8.20
2022-10-11T06:37:22.390Z,8.30
2022-10-11T06:39:50.372Z,8.39
2022-10-11T06:42:17.209Z,8.49
2022-10-11T06:44:43.954Z,8.61
2022-10-11T06:47:10.605Z,8.73
2022-10-11T06:49:37.697Z,8.84
2022-10-11T06:52:05.122Z,8.98
2022-10-11T06:54:31.967Z,9.08
2022-10-11T06:56:58.760Z,9.21
2022-10-11T06:59:25.468Z,9.33
2022-10-11T07:01:52.150Z,9.44
2022-10-11T07:04:18.910Z,9.57
2022-10-11T07:06:45.506Z,9.65
2022-10-11T07:09:12.217Z,9.78
2022-10-11T07:11:38.955Z,9.93
2022-10-11T07:14:07.882Z,10.07
2022-10-11T07:16:36.505Z,10.21
2022-10-11T07:19:05.049Z,10.32
2022-10-11T07:21:33.880Z,10.45
2022-10-11T07:24:01.380Z,10.59
2022-10-11T07:26:32.524Z,10.71
2022-10-11T07:29:04.373Z,10.83
2022-10-11T07:31:31.425Z,10.94
2022-10-11T07:33:58.033Z,11.06
2022-10-11T07:36:25.655Z,11.18
2022-10-11T07:38:52.740Z,11.29
2022-10-11T07:41:19.899Z,11.41
2022-10-11T07:43:47.969Z,11.51
2022-10-11T07:46:14.722Z,11.63
2022-10-11T07:48:41.451Z,11.76
2022-10-11T07:51:11.269Z,11.87
2022-10-11T07:53:42.455Z,12.01
2022-10-11T07:56:12.556Z,12.14
2022-10-11T07:58:40.574Z,12.24
2022-10-11T08:01:09.255Z,12.34
2022-10-11T08:03:36.484Z,12.46
2022-10-11T08:06:08.306Z,12.57
2022-10-11T08:08:36.556Z,12.67
2022-10-11T08:11:03.249Z,12.75
2022-10-11T08:13:30.912Z,12.86
2022-10-11T08:15:58.318Z,12.93
2022-10-11T08:18:25.259Z,13.02
2022-10-11T08:20:52.258Z,13.11
2022-10-11T08:23:19.787Z,13.19
2022-10-11T08:25:48.240Z,13.27
2022-10-11T08:28:17.802Z,13.32
2022-10-11T08:30:53.921Z,13.38
2022-10-11T08:33:23.006Z,13.45
2022-10-11T08:35:50.448Z,13.58
2022-10-11T08:38:18.463Z,13.75
2022-10-11T08:40:55.263Z,13.93
2022-10-11T08:43:34.337Z,14.13
2022-10-11T08:46:03.267Z,14.30
2022-10-11T08:48:30.067Z,14.44
2022-10-11T08:50:57.675Z,14.62
2022-10-11T08:53:40.713Z,14.81
2022-10-11T08:56:09.916Z,14.98
2022-10-11T08:58:47.011Z,15.15
2022-10-11T09:01:18.915Z,15.31
2022-10-11T09:03:48.067Z,15.43
2022-10-11T09:06:23.661Z,15.60
2022-10-11T09:09:15.011Z,15.75
2022-10-11T09:11:52.371Z,15.87
2022-10-11T09:14:24.592Z,15.99
2022-10-11T09:17:22.004Z,16.13
2022-10-11T09:20:07.746Z,16.24
2022-10-11T09:22:56.172Z,16.37
2022-10-11T09:25:53.297Z,16.49
2022-10-11T09:28:31.069Z,16.64
2022-10-11T09:30:58.912Z,16.78
2022-10-11T09:33:36.970Z,16.82
2022-10-11T09:36:16.685Z,16.79
2022-10-11T09:39:06.865Z,16.80
2022-10-11T09:41:41.586Z,16.85
2022-10-11T09:44:12.598Z,16.94
2022-10-11T09:46:42.456Z,17.06
2022-10-11T09:49:16.061Z,17.20
2022-10-11T09:51:47.451Z,17.30
2022-10-11T09:54:14.137Z,17.34
2022-10-11T09:56:45.745Z,17.39
2022-10-11T09:59:15.247Z,17.45
2022-10-11T10:01:41.950Z,17.47
2022-10-11T10:04:14.987Z,17.45
2022-10-11T10:06:41.688Z,17.43
2022-10-11T10:09:30.540Z,17.39
2022-10-11T10:11:58.326Z,17.32
2022-10-11T10:14:28.380Z,17.28
2022-10-11T10:17:04.806Z,17.27
2022-10-11T10:19:53.088Z,17.25
2022-10-11T10:22:30.291Z,17.20
2022-10-11T10:25:00.369Z,17.15
2022-10-11T10:27:29.825Z,17.14
2022-10-11T10:30:10.314Z,17.11
2022-10-11T10:32:55.711Z,17.12
2022-10-11T10:35:42.547Z,17.10
2022-10-11T10:38:25.527Z,17.12
2022-10-11T10:40:58.972Z,17.11
2022-10-11T10:43:29.993Z,17.11
2022-10-11T10:46:28.655Z,17.15
2022-10-11T10:52:37.633Z,17.11
2022-10-11T10:55:33.407Z,17.10
2022-10-11T10:58:15.049Z,17.06
2022-10-11T11:00:48.564Z,17.03
2022-10-11T11:03:50.718Z,17.02
2022-10-11T11:06:38.019Z,16.99
2022-10-11T11:09:07.665Z,16.98
2022-10-11T11:11:56.072Z,16.94
2022-10-11T11:15:00.221Z,16.85
2022-10-11T11:17:41.732Z,16.78
2022-10-11T11:20:11.282Z,16.71
2022-10-11T11:23:05.482Z,16.65
2022-10-11T11:25:52.633Z,16.64
2022-10-11T11:28:28.020Z,16.63
2022-10-11T11:31:32.094Z,16.69
2022-10-11T11:34:20.343Z,16.67
2022-10-11T11:36:49.851Z,16.67
2022-10-11T11:39:24.132Z,16.71
2022-10-11T11:41:58.075Z,16.73
2022-10-11T11:44:42.582Z,16.81
2022-10-11T11:47:34.033Z,16.87
2022-10-11T11:50:27.309Z,16.93
2022-10-11T11:53:01.169Z,16.96
2022-10-11T11:55:36.649Z,16.99
2022-10-11T11:58:09.353Z,17.03
2022-10-11T12:01:05.283Z,17.11
2022-10-11T12:03:41.596Z,17.17
2022-10-11T12:06:17.161Z,17.25
2022-10-11T12:08:48.628Z,17.29
2022-10-11T12:11:26.333Z,17.32
2022-10-11T12:13:55.037Z,17.38
2022-10-11T12:16:22.853Z,17.45
2022-10-11T12:19:02.977Z,17.47
2022-10-11T12:21:40.997Z,17.50
2022-10-11T12:24:20.390Z,17.63
2022-10-11T12:26:49.184Z,17.72
2022-10-11T12:29:19.093Z,17.80
2022-10-11T12:31:49.722Z,17.85
2022-10-11T12:37:33.450Z,17.99
2022-10-11T12:40:00.393Z,18.02
2022-10-11T12:42:35.434Z,18.08
2022-10-11T12:45:11.219Z,18.12
2022-10-11T12:47:53.611Z,18.10
2022-10-11T12:50:27.595Z,18.13
2022-10-11T12:53:09.959Z,18.14
2022-10-11T12:55:46.965Z,18.09
2022-10-11T12:58:26.555Z,18.05
2022-10-11T13:00:55.166Z,18.04
2022-10-11T13:03:41.056Z,18.04
2022-10-11T13:06:27.060Z,18.05
2022-10-11T13:09:02.761Z,18.08
2022-10-11T13:11:58.996Z,18.12
2022-10-11T13:14:27.646Z,18.17
2022-10-11T13:17:03.647Z,18.23
2022-10-11T13:19:32.635Z,18.27
2022-10-11T13:22:03.160Z,18.30
2022-10-11T13:24:37.948Z,18.27
2022-10-11T13:27:05.669Z,18.27
2022-10-11T13:29:41.478Z,18.27
2022-10-11T13:32:14.804Z,18.26
2022-10-11T13:34:45.301Z,18.25
2022-10-11T13:37:21.566Z,18.25
2022-10-11T13:39:51.435Z,18.23
2022-10-11T13:42:20.303Z,18.23
2022-10-11T13:44:47.435Z,18.25
2022-10-11T13:47:17.409Z,18.26
2022-10-11T13:49:46.505Z,18.24
2022-10-11T13:52:22.981Z,18.20
2022-10-11T13:54:58.951Z,18.22
2022-10-11T13:57:33.550Z,18.21
2022-10-11T14:00:02.573Z,18.21
2022-10-11T14:02:30.245Z,18.25
2022-10-11T14:04:57.625Z,18.23
2022-10-11T14:07:38.475Z,18.23
2022-10-11T14:10:06.599Z,18.18
2022-10-11T14:12:39.671Z,18.14
2022-10-11T14:15:24.074Z,18.11
2022-10-11T14:17:51.422Z,18.09
2022-10-11T14:20:21.740Z,18.05
2022-10-11T14:22:52.979Z,17.95
2022-10-11T14:25:20.754Z,17.86
2022-10-11T14:27:48.352Z,17.71
2022-10-11T14:30:27.368Z,17.61
2022-10-11T14:32:56.644Z,17.53
2022-10-11T14:35:28.857Z,17.45
2022-10-11T14:37:55.871Z,17.40
2022-10-11T14:40:27.048Z,17.29
2022-10-11T14:42:54.370Z,17.17
2022-10-11T14:45:21.426Z,17.06
2022-10-11T14:47:49.157Z,16.96
2022-10-11T14:50:40.789Z,16.82
2022-10-11T14:53:08.910Z,16.69
2022-10-11T14:55:37.815Z,16.56
2022-10-11T14:58:05.649Z,16.39
2022-10-11T15:00:33.079Z,16.28
2022-10-11T15:03:00.407Z,16.11
2022-10-11T15:05:33.870Z,16.01
2022-10-11T15:08:05.173Z,15.92
2022-10-11T15:10:39.421Z,15.80
2022-10-11T15:13:07.397Z,15.72
2022-10-11T15:15:36.941Z,15.62
2022-10-11T15:18:07.281Z,15.53
2022-10-11T15:20:39.758Z,15.38
2022-10-11T15:23:09.669Z,15.22
2022-10-11T15:25:38.338Z,15.09
2022-10-11T15:28:06.085Z,14.99
2022-10-11T15:30:41.111Z,14.89
2022-10-11T15:33:08.613Z,14.78
2022-10-11T15:35:35.220Z,14.66
2022-10-11T15:38:02.036Z,14.57
2022-10-11T15:40:36.969Z,14.45
2022-10-11T15:43:04.639Z,14.37
2022-10-11T15:45:31.713Z,14.33
2022-10-11T15:47:58.812Z,14.26
2022-10-11T15:50:34.765Z,14.18
2022-10-11T15:53:05.603Z,14.12
2022-10-11T15:55:34.536Z,14.05
2022-10-11T15:58:01.730Z,14.01
2022-10-11T16:00:29.091Z,13.92
2022-10-11T16:02:57.462Z,13.83
2022-10-11T16:05:26.405Z,13.71
2022-10-11T16:07:53.896Z,13.62
2022-10-11T16:10:21.407Z,13.53
2022-10-11T16:12:49.084Z,13.46
2022-10-11T16:15:16.929Z,13.33
2022-10-11T16:17:43.636Z,13.25
2022-10-11T16:20:10.354Z,13.19
2022-10-11T16:22:37.322Z,13.13
2022-10-11T16:25:05.007Z,13.04
2022-10-11T16:27:32.550Z,12.97
2022-10-11T16:30:01.004Z,12.91
2022-10-11T16:32:28.113Z,12.88
2022-10-11T16:34:54.969Z,12.82
2022-10-11T16:37:21.660Z,12.81
2022-10-11T16:39:48.260Z,12.78
2022-10-11T16:42:15.074Z,12.72
2022-10-11T16:44:41.722Z,12.70
2022-10-11T16:47:08.428Z,12.62
2022-10-11T16:49:35.518Z,12.58
2022-10-11T16:52:03.928Z,12.51
2022-10-11T16:54:32.038Z,12.46
2022-10-11T16:56:59.621Z,12.41
2022-10-11T16:59:27.001Z,12.34
2022-10-11T17:01:54.083Z,12.32
2022-10-11T17:04:21.284Z,12.31
2022-10-11T17:06:48.054Z,12.28
2022-10-11T17:09:15.947Z,12.20
2022-10-11T17:11:43.495Z,12.17
2022-10-11T17:14:12.780Z,12.13
2022-10-11T17:16:39.740Z,12.05
2022-10-11T17:19:20.219Z,12.00
2022-10-11T17:21:46.827Z,11.96
2022-10-11T17:24:13.530Z,11.91
2022-10-11T17:26:40.361Z,11.90
2022-10-11T17:29:07.017Z,11.84
2022-10-11T17:31:33.846Z,11.79
2022-10-11T17:34:01.514Z,11.76
2022-10-11T17:36:36.187Z,11.72
2022-10-11T17:39:09.545Z,11.71
2022-10-11T17:41:36.723Z,11.69
2022-10-11T17:44:04.413Z,11.68
2022-10-11T17:46:34.236Z,11.66
2022-10-11T17:49:04.857Z,11.63
2022-10-11T17:51:32.891Z,11.57
2022-10-11T17:53:59.617Z,11.55
2022-10-11T17:56:30.357Z,11.51
2022-10-11T17:58:59.618Z,11.48
2022-10-11T18:01:28.482Z,11.45
2022-10-11T18:04:04.266Z,11.44
2022-10-11T18:06:33.955Z,11.44
2022-10-11T18:09:02.493Z,11.44
2022-10-11T18:11:30.304Z,11.42
2022-10-11T18:13:56.931Z,11.38
2022-10-11T18:16:28.764Z,11.37
2022-10-11T18:18:59.577Z,11.32
2022-10-11T18:21:31.356Z,11.29
2022-10-11T18:24:02.822Z,11.28
2022-10-11T18:26:30.616Z,11.26
2022-10-11T18:28:58.585Z,11.27
2022-10-11T18:31:27.926Z,11.25
2022-10-11T18:33:55.379Z,11.23
2022-10-11T18:36:24.494Z,11.21
2022-10-11T18:38:56.918Z,11.18
2022-10-11T18:41:30.631Z,11.21
2022-10-11T18:44:00.594Z,11.22
2022-10-11T18:46:27.957Z,11.24
2022-10-11T18:48:56.478Z,11.25
2022-10-11T18:51:32.408Z,11.23
2022-10-11T18:53:59.490Z,11.20
2022-10-11T18:56:28.167Z,11.22
2022-10-11T18:58:56.836Z,11.20
2022-10-11T19:01:29.150Z,11.16
2022-10-11T19:03:57.753Z,11.16
2022-10-11T19:06:27.866Z,11.13
2022-10-11T19:08:59.234Z,11.10
2022-10-11T19:11:25.903Z,11.10
2022-10-11T19:14:06.641Z,11.10
2022-10-11T19:16:35.381Z,11.10
2022-10-11T19:19:02.483Z,11.09
2022-10-11T19:21:29.303Z,11.09
2022-10-11T19:23:56.918Z,11.08
2022-10-11T19:26:30.134Z,11.08
2022-10-11T19:28:59.412Z,11.06
2022-10-11T19:31:26.665Z,11.06
2022-10-11T19:33:54.007Z,11.04
2022-10-11T19:36:21.089Z,11.02
2022-10-11T19:38:49.450Z,11.01
2022-10-11T19:41:18.719Z,10.97
2022-10-11T19:43:46.701Z,10.95
2022-10-11T19:46:20.196Z,10.91
2022-10-11T19:48:51.607Z,10.86
2022-10-11T19:51:22.089Z,10.85
2022-10-11T19:53:54.391Z,10.80
2022-10-11T19:56:21.155Z,10.76
2022-10-11T19:58:47.817Z,10.73
2022-10-11T20:01:18.021Z,10.69
2022-10-11T20:03:50.661Z,10.65
2022-10-11T20:06:20.180Z,10.61
2022-10-11T20:08:59.819Z,10.57
2022-10-11T20:11:31.719Z,10.55
2022-10-11T20:13:58.596Z,10.50
2022-10-11T20:16:27.928Z,10.49
2022-10-11T20:18:58.584Z,10.44
2022-10-11T20:21:27.906Z,10.39
2022-10-11T20:23:58.829Z,10.36
2022-10-11T20:26:27.210Z,10.32
2022-10-11T20:28:56.186Z,10.30
2022-10-11T20:31:33.251Z,10.28
2022-10-11T20:34:02.275Z,10.24
2022-10-11T20:36:30.268Z,10.21
2022-10-11T20:38:58.846Z,10.17
2022-10-11T20:41:28.532Z,10.14
2022-10-11T20:43:57.669Z,10.08
2022-10-11T20:46:27.083Z,10.03
2022-10-11T20:49:01.931Z,9.96
2022-10-11T20:51:30.782Z,9.90
2022-10-11T20:53:58.866Z,9.89
2022-10-11T20:56:25.700Z,9.86
2022-10-11T20:58:55.029Z,9.84
2022-10-11T21:01:28.440Z,9.84
2022-10-11T21:03:57.772Z,9.83
2022-10-11T21:06:24.706Z,9.76
2022-10-11T21:08:51.470Z,9.68
2022-10-11T21:11:18.467Z,9.64
2022-10-11T21:13:45.215Z,9.60
2022-10-11T21:16:16.491Z,9.56
2022-10-11T21:18:43.863Z,9.48
2022-10-11T21:21:13.430Z,9.46
2022-10-11T21:23:40.591Z,9.43
2022-10-11T21:26:10.454Z,9.40
2022-10-11T21:28:37.930Z,9.38
2022-10-11T21:31:08.482Z,9.35
2022-10-11T21:33:35.985Z,9.35
2022-10-11T21:36:11.044Z,9.33
2022-10-11T21:38:38.522Z,9.30
2022-10-11T21:41:07.102Z,9.27
2022-10-11T21:43:36.017Z,9.26
2022-10-11T21:46:24.964Z,9.24
2022-10-11T21:48:59.425Z,9.21
2022-10-11T21:51:30.201Z,9.19
2022-10-11T21:53:59.556Z,9.14
2022-10-11T21:56:27.334Z,9.13
2022-10-11T21:58:54.266Z,9.10
2022-10-11T22:01:21.527Z,9.06
2022-10-11T22:03:49.007Z,9.01
2022-10-11T22:06:16.765Z,8.98
2022-10-11T22:08:43.466Z,8.91
2022-10-11T22:11:10.712Z,8.86
2022-10-11T22:13:38.469Z,8.84
2022-10-11T22:16:10.905Z,8.82
2022-10-11T22:18:38.747Z,8.82
2022-10-11T22:21:16.330Z,8.83
2022-10-11T22:23:46.040Z,8.82
2022-10-11T22:26:22.086Z,8.83
2022-10-11T22:28:49.440Z,8.78
2022-10-11T22:31:19.368Z,8.76
2022-10-11T22:33:46.215Z,8.76
2022-10-11T22:36:13.975Z,8.74
2022-10-11T22:38:42.238Z,8.74
2022-10-11T22:41:09.924Z,8.75
2022-10-11T22:43:36.989Z,8.73
2022-10-11T22:46:05.043Z,8.72
2022-10-11T22:48:31.876Z,8.69
2022-10-11T22:50:59.961Z,8.66
2022-10-11T22:53:26.569Z,8.64
2022-10-11T22:55:53.214Z,8.61
2022-10-11T22:58:19.936Z,8.60
2022-10-11T23:00:46.544Z,8.59
2022-10-11T23:03:17.010Z,8.59
2022-10-11T23:05:43.931Z,8.55
2022-10-11T23:08:10.625Z,8.57
2022-10-11T23:10:40.793Z,8.55
2022-10-11T23:13:07.558Z,8.55
2022-10-11T23:15:34.262Z,8.51
2022-10-11T23:18:01.006Z,8.49
2022-10-11T23:20:27.999Z,8.47
2022-10-11T23:22:54.745Z,8.42
2022-10-11T23:25:21.487Z,8.40
2022-10-11T23:27:48.264Z,8.39
2022-10-11T23:30:15.348Z,8.38
2022-10-11T23:32:42.134Z,8.35
2022-10-11T23:35:09.003Z,8.37
2022-10-11T23:37:35.759Z,8.38
2022-10-11T23:40:02.807Z,8.41
2022-10-11T23:42:29.471Z,8.43
2022-10-11T23:44:56.105Z,8.43
2022-10-11T23:47:22.820Z,8.45
2022-10-11T23:49:49.547Z,8.48
2022-10-11T23:52:16.205Z,8.48
2022-10-11T23:54:43.040Z,8.51
2022-10-11T23:57:09.838Z,8.53
2022-10-11T23:59:36.397Z,8.51
